Time;durP1;ratioP1;P1;durP2;ratioP2;P2;SDS_P1;SDS_P2;PMS_P1;PMS_P2;Temp;Humidity;BMP_temperature;BMP_pressure;BME280_temperature;BME280_humidity;BME280_pressure;Samples;Min_cycle;Max_cycle;Signal;HPM_P1;HPM_P2
2022/11/13 06:03:10;;;;;;;20.50;11.70;;;3.00;99.90;;;;;;5209771;23;20246;-73
2022/11/13 06:05:56;;;;;;;16.05;11.48;;;3.00;99.90;;;;;;4970007;28;20065;-72
2022/11/13 06:08:41;;;;;;;20.23;11.68;;;3.00;99.90;;;;;;4991908;28;20057;-72
2022/11/13 06:11:27;;;;;;;17.65;10.98;;;3.00;99.90;;;;;;5002479;28;20037;-74
2022/11/13 06:14:11;;;;;;;16.17;11.15;;;3.00;99.90;;;;;;5002360;28;20064;-71
2022/11/13 06:16:56;;;;;;;15.82;11.13;;;2.90;99.90;;;;;;5002003;28;20310;-72
2022/11/13 06:19:40;;;;;;;13.73;9.65;;;2.90;99.90;;;;;;5002193;28;20067;-71
2022/11/13 06:22:24;;;;;;;14.98;9.80;;;2.90;99.90;;;;;;4982991;28;20038;-70
2022/11/13 06:25:08;;;;;;;13.52;9.43;;;2.90;99.90;;;;;;4983153;28;20130;-72
2022/11/13 06:27:52;;;;;;;16.83;9.70;;;2.90;99.90;;;;;;4982664;28;20046;-72
2022/11/13 06:30:37;;;;;;;15.73;10.52;;;2.90;99.90;;;;;;4983782;28;20396;-72
2022/11/13 06:33:21;;;;;;;14.85;9.82;;;2.90;99.90;;;;;;4986936;28;20224;-71
2022/11/13 06:36:09;;;;;;;16.17;10.60;;;2.90;99.90;;;;;;4996177;28;20032;-71
2022/11/13 06:38:53;;;;;;;11.07;7.47;;;2.90;99.90;;;;;;5004592;28;20101;-74
2022/11/13 06:41:38;;;;;;;16.38;10.40;;;2.80;99.90;;;;;;5005882;28;20045;-71
2022/11/13 06:44:22;;;;;;;15.63;10.23;;;2.90;99.90;;;;;;5005975;28;20037;-74
2022/11/13 06:47:08;;;;;;;15.52;10.05;;;2.80;99.90;;;;;;5005096;28;20061;-71
2022/11/13 06:49:52;;;;;;;14.32;9.70;;;2.90;99.90;;;;;;5005699;28;20038;-73
2022/11/13 06:52:37;;;;;;;13.68;9.30;;;2.80;99.90;;;;;;5005731;28;20224;-71
2022/11/13 06:55:21;;;;;;;14.43;9.65;;;2.80;99.90;;;;;;5005817;28;20370;-72
2022/11/13 06:58:05;;;;;;;14.65;9.30;;;2.80;99.90;;;;;;5004932;28;20093;-71
2022/11/13 07:00:49;;;;;;;17.77;9.25;;;2.80;99.90;;;;;;5005132;28;20025;-72
2022/11/13 07:03:34;;;;;;;12.52;9.07;;;2.80;99.90;;;;;;5005849;28;20089;-73
2022/11/13 07:06:20;;;;;;;14.73;10.13;;;2.80;99.90;;;;;;5005763;28;20219;-72
2022/11/13 07:09:04;;;;;;;14.73;10.02;;;2.90;99.90;;;;;;5004871;28;20061;-71
2022/11/13 07:11:49;;;;;;;15.45;9.18;;;3.00;99.90;;;;;;5004753;28;20042;-71
2022/11/13 07:14:33;;;;;;;13.70;9.90;;;3.10;99.90;;;;;;5005290;28;20419;-73
2022/11/13 07:17:17;;;;;;;23.25;9.55;;;3.10;99.90;;;;;;5005075;28;20070;-72
2022/11/13 07:20:01;;;;;;;16.27;9.23;;;3.10;99.90;;;;;;5004623;28;20128;-73
2022/11/13 07:22:46;;;;;;;15.70;8.88;;;2.90;99.90;;;;;;5004050;28;20264;-72
2022/11/13 07:25:30;;;;;;;13.88;8.80;;;2.90;99.90;;;;;;5005156;28;20117;-72
2022/11/13 07:28:15;;;;;;;11.70;8.30;;;3.00;99.90;;;;;;5005170;28;20045;-74
2022/11/13 07:31:00;;;;;;;11.88;8.18;;;3.00;99.90;;;;;;5004454;28;20057;-73
2022/11/13 07:33:47;;;;;;;12.63;8.65;;;3.00;99.90;;;;;;5004995;28;20239;-73
2022/11/13 07:36:32;;;;;;;17.67;9.27;;;3.00;99.90;;;;;;5004845;28;20057;-75
2022/11/13 07:39:16;;;;;;;13.23;9.05;;;3.00;99.90;;;;;;4990017;28;20084;-72
2022/11/13 07:42:00;;;;;;;16.08;9.18;;;3.10;99.90;;;;;;5003323;28;20033;-74
2022/11/13 07:44:44;;;;;;;14.90;8.50;;;3.00;99.90;;;;;;5004726;28;20041;-72
2022/11/13 07:47:29;;;;;;;28.35;9.00;;;3.00;99.90;;;;;;5005261;28;20080;-74
2022/11/13 07:50:13;;;;;;;18.23;8.82;;;3.00;99.90;;;;;;4986759;28;20040;-72
2022/11/13 07:53:00;;;;;;;18.52;8.77;;;3.10;99.90;;;;;;4987028;28;20028;-73
2022/11/13 07:55:45;;;;;;;17.80;8.70;;;3.10;99.90;;;;;;4985233;28;20077;-72
2022/11/13 07:58:29;;;;;;;12.05;8.18;;;3.20;99.90;;;;;;5002829;28;20171;-72
2022/11/13 08:01:14;;;;;;;12.32;7.85;;;3.20;99.90;;;;;;5004230;28;20034;-72
2022/11/13 08:03:58;;;;;;;27.92;8.35;;;3.40;99.90;;;;;;5003788;28;20153;-73
2022/11/13 08:06:42;;;;;;;21.77;8.60;;;3.50;99.90;;;;;;5004053;28;20059;-73
2022/11/13 08:09:26;;;;;;;17.30;7.85;;;3.50;99.90;;;;;;5004087;28;20029;-72
2022/11/13 08:12:10;;;;;;;17.25;8.13;;;3.60;99.90;;;;;;4993227;28;20046;-73
2022/11/13 08:14:54;;;;;;;10.20;7.40;;;3.50;99.90;;;;;;4994575;28;20074;-72
2022/11/13 08:17:39;;;;;;;21.65;8.57;;;3.50;99.90;;;;;;4991981;28;20061;-75
2022/11/13 08:20:32;;;;;;;18.85;8.65;;;3.50;99.90;;;;;;4996501;28;20064;-73
2022/11/13 08:23:16;;;;;;;14.50;8.40;;;3.70;99.90;;;;;;4994077;28;20223;-72
2022/11/13 08:26:05;;;;;;;12.18;7.55;;;3.80;99.90;;;;;;5003249;28;20033;-71
2022/11/13 08:28:49;;;;;;;15.07;8.05;;;3.80;99.90;;;;;;4970811;28;20115;-72
2022/11/13 08:31:33;;;;;;;12.18;7.85;;;3.70;99.90;;;;;;4984409;28;20050;-73
2022/11/13 08:34:17;;;;;;;8.98;6.65;;;3.80;99.90;;;;;;4984255;28;20049;-72
2022/11/13 08:37:01;;;;;;;9.43;7.22;;;3.90;99.90;;;;;;4991808;28;20221;-70
2022/11/13 08:39:45;;;;;;;10.23;7.53;;;4.00;99.90;;;;;;4987969;28;20040;-72
2022/11/13 08:42:30;;;;;;;10.32;7.30;;;4.10;99.90;;;;;;5002715;28;20037;-73
2022/11/13 08:45:14;;;;;;;10.93;7.43;;;4.30;99.90;;;;;;4982780;28;20045;-74
2022/11/13 08:48:00;;;;;;;9.90;7.53;;;4.30;99.90;;;;;;4982667;28;20068;-72
2022/11/13 08:50:44;;;;;;;9.07;6.88;;;4.20;99.90;;;;;;4968976;28;20228;-73
2022/11/13 08:53:28;;;;;;;10.95;7.60;;;4.40;99.90;;;;;;4999741;28;20033;-72
2022/11/13 08:56:13;;;;;;;10.93;7.68;;;4.50;99.90;;;;;;5001920;28;20323;-71
2022/11/13 08:58:57;;;;;;;10.38;7.75;;;4.50;99.90;;;;;;4982628;28;20065;-73
2022/11/13 09:01:42;;;;;;;9.18;7.18;;;4.60;99.90;;;;;;4982875;28;20057;-72
2022/11/13 09:04:26;;;;;;;9.68;7.22;;;4.80;99.90;;;;;;4983364;28;20129;-71
2022/11/13 09:07:10;;;;;;;9.57;6.65;;;5.00;99.90;;;;;;4982321;28;20054;-72
2022/11/13 09:09:54;;;;;;;8.85;6.85;;;5.10;99.90;;;;;;4994058;28;20057;-69
2022/11/13 09:12:38;;;;;;;11.38;7.65;;;5.00;99.90;;;;;;5001702;28;20069;-71
2022/11/13 09:15:23;;;;;;;9.95;6.88;;;4.90;99.90;;;;;;4986933;28;20103;-72
2022/11/13 09:18:08;;;;;;;8.95;6.65;;;4.90;99.90;;;;;;4986493;28;20386;-75
2022/11/13 09:20:53;;;;;;;9.05;6.57;;;4.90;99.90;;;;;;5001809;28;20087;-71
2022/11/13 09:23:37;;;;;;;8.52;7.00;;;5.20;99.90;;;;;;5001698;28;20204;-71
2022/11/13 09:26:21;;;;;;;9.07;6.70;;;5.40;99.90;;;;;;5001680;28;20508;-73
2022/11/13 09:29:05;;;;;;;8.85;6.78;;;5.50;99.90;;;;;;5001120;28;20157;-71
2022/11/13 09:31:50;;;;;;;8.80;6.32;;;5.60;99.90;;;;;;5001697;28;20093;-71
2022/11/13 09:34:35;;;;;;;9.20;6.90;;;5.80;99.90;;;;;;5001777;28;20032;-71
2022/11/13 09:37:19;;;;;;;9.02;6.65;;;6.10;99.90;;;;;;4981291;28;20095;-71
2022/11/13 09:40:03;;;;;;;7.05;5.95;;;6.30;99.90;;;;;;4981578;28;20037;-74
2022/11/13 09:42:48;;;;;;;8.52;6.30;;;6.50;99.90;;;;;;4982020;28;20425;-73
2022/11/13 09:45:33;;;;;;;8.80;6.75;;;6.60;99.90;;;;;;4981915;28;20070;-71
2022/11/13 09:48:41;;;;;;;7.97;6.80;;;6.50;99.90;;;;;;4981384;28;20034;-76
2022/11/13 09:51:30;;;;;;;;;;;6.60;99.90;;;;;;4968039;28;20276;-72
2022/11/13 09:54:14;;;;;;;8.40;6.30;;;6.50;99.90;;;;;;4981687;28;19947;-71
2022/11/13 09:57:17;;;;;;;8.43;6.78;;;6.60;99.90;;;;;;4989664;28;20113;-72
2022/11/13 10:00:09;;;;;;;9.02;6.72;;;6.60;99.90;;;;;;5000410;28;20068;-73
2022/11/13 10:03:22;;;;;;;9.07;7.00;;;6.50;99.90;;;;;;4999663;28;20061;-74
2022/11/13 10:06:25;;;;;;;10.23;7.03;;;6.50;99.90;;;;;;5002657;28;20114;-74
2022/11/13 10:09:31;;;;;;;10.05;7.40;;;6.60;99.90;;;;;;5004639;28;20212;-75
2022/11/13 10:12:16;;;;;;;9.65;7.00;;;6.60;99.90;;;;;;5005063;28;20029;-72
2022/11/13 10:15:03;;;;;;;10.55;7.97;;;6.70;99.90;;;;;;5005040;28;20084;-74
2022/11/13 10:17:54;;;;;;;10.68;8.05;;;6.60;99.90;;;;;;5005133;28;20102;-74
2022/11/13 10:20:59;;;;;;;11.30;8.05;;;6.70;99.90;;;;;;5005524;28;20098;-73
2022/11/13 10:23:49;;;;;;;10.75;8.35;;;6.80;99.90;;;;;;5005601;28;20034;-74
2022/11/13 10:26:34;;;;;;;10.73;8.05;;;6.90;99.90;;;;;;4990508;28;20053;-74
2022/11/13 10:29:19;;;;;;;11.13;7.80;;;6.90;99.90;;;;;;5004642;28;20114;-70
2022/11/13 10:32:19;;;;;;;9.55;6.93;;;7.00;99.90;;;;;;5004577;28;20114;-76
2022/11/13 10:35:06;;;;;;;9.75;7.50;;;7.40;99.90;;;;;;5003983;28;20033;-72
2022/11/13 10:38:14;;;;;;;10.50;7.75;;;7.80;99.90;;;;;;5004701;28;20145;-73
2022/11/13 10:41:14;;;;;;;10.05;7.75;;;8.10;99.90;;;;;;5004000;28;20038;-72
2022/11/13 10:44:16;;;;;;;9.30;7.30;;;8.40;99.90;;;;;;5004415;28;20033;-71
2022/11/13 10:47:18;;;;;;;8.82;6.85;;;8.70;99.90;;;;;;5004004;28;20093;-71
2022/11/13 10:50:24;;;;;;;9.45;6.78;;;9.40;99.90;;;;;;5004416;28;20142;-71
2022/11/13 10:53:17;;;;;;;7.18;6.15;;;10.00;99.90;;;;;;5004105;28;20077;-72
2022/11/13 10:56:10;;;;;;;8.15;6.60;;;10.70;99.90;;;;;;5000605;28;20393;-70
2022/11/13 10:59:12;;;;;;;7.97;6.35;;;11.50;99.90;;;;;;4997555;28;20041;-72
2022/11/13 11:02:10;;;;;;;6.93;6.05;;;12.20;99.90;;;;;;5004006;28;20272;-72
2022/11/13 11:05:15;;;;;;;7.18;5.95;;;12.80;99.80;;;;;;5004443;28;20049;-73
2022/11/13 11:07:59;;;;;;;6.43;5.70;;;13.00;98.60;;;;;;5004214;28;20259;-72
2022/11/13 11:14:24;;;;;;;7.50;6.32;;;13.90;96.80;;;;;;5003511;28;20224;-74
2022/11/13 11:17:12;;;;;;;6.63;5.53;;;14.30;95.50;;;;;;5003455;28;20041;-71
2022/11/13 11:20:08;;;;;;;8.15;6.53;;;15.00;94.90;;;;;;5004140;28;20151;-71
2022/11/13 11:23:05;;;;;;;7.10;6.05;;;15.60;93.70;;;;;;5004132;28;20037;-72
2022/11/13 11:26:12;;;;;;;7.60;6.22;;;15.90;92.90;;;;;;5002393;28;20033;-73
2022/11/13 11:29:27;;;;;;;7.65;6.10;;;16.30;92.40;;;;;;5003761;28;20052;-71
2022/11/13 11:32:21;;;;;;;6.00;5.40;;;17.40;90.70;;;;;;5003072;28;20221;-72
2022/11/13 11:35:18;;;;;;;6.85;6.15;;;17.80;90.30;;;;;;5001948;28;20224;-72
2022/11/13 11:38:19;;;;;;;5.72;5.13;;;17.70;88.90;;;;;;4983811;28;20350;-71
2022/11/13 11:41:27;;;;;;;7.45;6.13;;;18.30;87.20;;;;;;4983596;28;20030;-70
2022/11/13 11:44:25;;;;;;;6.95;6.05;;;18.90;83.50;;;;;;4995185;28;20578;-73
2022/11/13 11:47:14;;;;;;;5.85;5.25;;;19.60;83.00;;;;;;5003381;28;20252;-70
2022/11/13 11:50:00;;;;;;;6.32;5.72;;;20.20;81.90;;;;;;5003587;28;20128;-72
2022/11/13 11:53:12;;;;;;;6.18;5.57;;;20.20;79.80;;;;;;5003532;28;20383;-72
2022/11/13 11:56:19;;;;;;;6.28;5.68;;;20.70;78.50;;;;;;5003286;28;20030;-74
2022/11/13 11:59:25;;;;;;;6.68;5.95;;;21.30;76.50;;;;;;4983516;28;20070;-72
2022/11/13 12:02:34;;;;;;;6.43;5.80;;;21.70;75.00;;;;;;4981083;28;20090;-71
2022/11/13 12:05:46;;;;;;;6.28;5.68;;;22.30;73.90;;;;;;4983297;28;20034;-71
2022/11/13 12:08:58;;;;;;;6.78;6.05;;;22.50;74.20;;;;;;4984245;28;20102;-72
2022/11/13 12:12:08;;;;;;;6.13;5.53;;;22.50;72.00;;;;;;4964083;29;20054;-70
2022/11/13 12:15:07;;;;;;;6.72;6.07;;;22.80;69.60;;;;;;4964789;29;20038;-73
2022/11/13 12:18:16;;;;;;;6.15;5.55;;;22.40;70.50;;;;;;4964204;29;20046;-71
2022/11/13 12:21:36;;;;;;;6.95;5.85;;;22.80;70.10;;;;;;4964231;29;20095;-71
2022/11/13 12:24:39;;;;;;;6.70;6.03;;;23.40;69.30;;;;;;4963366;29;20095;-72
2022/11/13 12:27:49;;;;;;;6.05;5.45;;;23.70;67.90;;;;;;4963354;29;20034;-73
2022/11/13 12:30:33;;;;;;;5.68;5.05;;;23.50;67.40;;;;;;4964165;29;20149;-72
2022/11/13 12:33:22;;;;;;;6.38;5.25;;;24.00;67.40;;;;;;4963642;29;20083;-71
2022/11/13 12:36:10;;;;;;;7.28;5.60;;;23.80;67.80;;;;;;4980764;28;20074;-72
2022/11/13 12:39:49;;;;;;;6.95;6.05;;;24.20;66.10;;;;;;4983157;28;20041;-71
2022/11/13 12:42:44;;;;;;;6.97;5.32;;;23.90;66.30;;;;;;4942487;29;20098;-72
2022/11/13 12:45:37;;;;;;;6.35;5.10;;;23.60;66.20;;;;;;4942288;29;20051;-71
2022/11/13 12:48:40;;;;;;;6.55;5.72;;;23.30;69.50;;;;;;4982761;28;20069;-72
2022/11/13 12:51:24;;;;;;;7.03;5.07;;;22.60;68.40;;;;;;4982530;28;20066;-73
2022/11/13 12:54:09;;;;;;;6.75;6.00;;;22.40;67.80;;;;;;4982345;28;20037;-72
2022/11/13 12:57:13;;;;;;;7.03;5.50;;;21.70;68.90;;;;;;4982381;28;20038;-72
2022/11/13 13:00:11;;;;;;;7.07;5.40;;;21.30;71.80;;;;;;4982857;28;20054;-73
2022/11/13 13:03:40;;;;;;;5.75;4.65;;;20.90;71.20;;;;;;4995487;28;20048;-73
2022/11/13 13:07:00;;;;;;;6.50;5.40;;;20.90;72.30;;;;;;5001267;28;20040;-73
2022/11/13 13:10:00;;;;;;;6.57;5.50;;;20.60;72.60;;;;;;4989748;28;20427;-73
2022/11/13 13:13:12;;;;;;;6.43;5.40;;;20.20;71.90;;;;;;5002006;28;20089;-72
2022/11/13 13:16:02;;;;;;;5.70;5.10;;;20.40;73.30;;;;;;5001912;28;20041;-72
2022/11/13 13:18:46;;;;;;;8.98;5.65;;;20.50;74.40;;;;;;5001766;28;20371;-72
2022/11/13 13:21:42;;;;;;;7.63;6.10;;;20.20;72.50;;;;;;5001021;28;20069;-72
2022/11/13 13:24:35;;;;;;;7.72;6.35;;;19.50;73.50;;;;;;5001459;28;20065;-71
2022/11/13 13:27:29;;;;;;;7.55;5.75;;;19.00;74.90;;;;;;5001089;28;20037;-74
2022/11/13 13:30:23;;;;;;;7.60;6.15;;;18.90;76.30;;;;;;4986630;28;20074;-71
2022/11/13 13:33:26;;;;;;;6.53;5.38;;;19.00;77.10;;;;;;5001620;28;20032;-71
2022/11/13 13:36:17;;;;;;;7.13;5.10;;;19.00;77.60;;;;;;5001082;28;20084;-73
2022/11/13 13:39:15;;;;;;;6.05;5.05;;;18.60;76.10;;;;;;4987301;28;20069;-74
2022/11/13 13:42:10;;;;;;;;;;;18.50;76.60;;;;;;5002890;28;20100;-74
2022/11/13 13:45:01;;;;;;;8.52;6.30;;;18.60;77.10;;;;;;5002723;28;19912;-75
2022/11/13 13:47:52;;;;;;;7.15;5.78;;;18.80;76.00;;;;;;5002607;28;20080;-74
2022/11/13 13:50:45;;;;;;;7.43;6.13;;;18.60;77.10;;;;;;4988057;28;20102;-72
2022/11/13 13:53:33;;;;;;;6.82;5.50;;;18.60;76.50;;;;;;5002054;28;20041;-73
2022/11/13 13:56:19;;;;;;;7.40;5.95;;;18.30;78.00;;;;;;5001670;28;20033;-72
2022/11/13 13:59:05;;;;;;;6.45;5.28;;;18.20;78.50;;;;;;5002735;28;20255;-72
2022/11/13 14:01:59;;;;;;;7.10;5.88;;;18.20;78.20;;;;;;5002128;28;20089;-73
2022/11/13 14:04:48;;;;;;;8.27;6.03;;;17.80;78.80;;;;;;5002601;28;20037;-74
2022/11/13 14:07:34;;;;;;;7.20;5.63;;;17.60;79.20;;;;;;5002038;28;20029;-73
2022/11/13 14:10:22;;;;;;;8.43;6.28;;;17.20;80.80;;;;;;4991238;28;20037;-74
2022/11/13 14:13:21;;;;;;;7.50;6.00;;;17.60;80.30;;;;;;5002582;28;20029;-74
2022/11/13 14:16:06;;;;;;;7.97;6.53;;;17.90;80.90;;;;;;5002792;28;20137;-73
2022/11/13 14:19:02;;;;;;;9.20;6.32;;;18.20;78.90;;;;;;5002402;28;20054;-74
2022/11/13 14:21:49;;;;;;;7.97;5.95;;;18.50;77.90;;;;;;5002482;28;20037;-76
2022/11/13 14:24:41;;;;;;;8.77;6.40;;;18.40;77.80;;;;;;5000545;28;20076;-73
2022/11/13 14:27:27;;;;;;;8.95;6.70;;;18.10;78.70;;;;;;5001805;28;20100;-73
2022/11/13 14:30:25;;;;;;;8.52;6.72;;;17.60;79.90;;;;;;5002666;28;20056;-74
2022/11/13 14:33:16;;;;;;;8.05;6.70;;;17.70;80.10;;;;;;5002644;28;20061;-74
2022/11/13 14:36:01;;;;;;;8.05;6.13;;;18.40;78.30;;;;;;5002398;28;20101;-74
2022/11/13 14:38:47;;;;;;;8.07;6.18;;;19.10;77.30;;;;;;5002151;28;20032;-73
2022/11/13 14:41:48;;;;;;;7.47;5.93;;;19.50;75.90;;;;;;4999554;28;20252;-74
2022/11/13 14:44:34;;;;;;;6.60;5.40;;;19.80;74.70;;;;;;5001686;28;20272;-72
2022/11/13 14:47:28;;;;;;;8.05;5.70;;;19.60;74.80;;;;;;5001526;28;20076;-74
2022/11/13 14:50:34;;;;;;;6.53;5.55;;;18.90;77.40;;;;;;5002170;28;20141;-72
2022/11/13 14:53:40;;;;;;;6.80;5.70;;;18.40;78.00;;;;;;5005212;28;20078;-73
2022/11/13 14:56:36;;;;;;;9.38;7.07;;;17.70;81.00;;;;;;5004946;28;20053;-73
2022/11/13 14:59:28;;;;;;;9.10;6.82;;;17.00;81.20;;;;;;5004321;28;20053;-73
2022/11/13 15:02:12;;;;;;;7.60;6.25;;;16.60;83.70;;;;;;5005799;28;20331;-72
2022/11/13 15:04:56;;;;;;;6.68;5.63;;;16.40;83.50;;;;;;5005827;28;20354;-73
2022/11/13 15:07:44;;;;;;;8.85;6.53;;;16.40;84.90;;;;;;5005477;28;20334;-72
2022/11/13 15:10:30;;;;;;;;;;;16.50;84.30;;;;;;5005497;28;20037;-73
2022/11/13 15:13:16;;;;;;;7.10;5.60;;;16.70;85.40;;;;;;5003460;28;20119;-73
2022/11/13 15:16:04;;;;;;;7.95;6.07;;;16.60;85.80;;;;;;5005295;28;20072;-73
2022/11/13 15:19:04;;;;;;;7.63;6.32;;;15.90;87.20;;;;;;5005287;28;20204;-72
2022/11/13 15:21:49;;;;;;;10.20;6.70;;;15.10;88.80;;;;;;5005199;28;20211;-73
2022/11/13 15:24:33;;;;;;;10.50;7.63;;;14.40;90.70;;;;;;5004535;28;20338;-72
2022/11/13 15:27:18;;;;;;;15.02;9.40;;;13.70;91.60;;;;;;5004495;28;20049;-74
2022/11/13 15:30:02;;;;;;;11.57;8.27;;;13.00;93.30;;;;;;4994224;28;20078;-73
2022/11/13 15:32:52;;;;;;;11.07;8.07;;;12.40;93.70;;;;;;4985301;28;20252;-72
2022/11/13 15:35:36;;;;;;;10.93;8.07;;;11.90;95.10;;;;;;4984539;28;20090;-73
2022/11/13 15:38:20;;;;;;;12.35;8.13;;;11.30;96.00;;;;;;4984745;28;20182;-75
2022/11/13 15:41:13;;;;;;;13.23;8.63;;;11.10;97.70;;;;;;4985328;28;20229;-74
2022/11/13 15:43:57;;;;;;;20.33;11.43;;;11.00;98.00;;;;;;4985334;28;20110;-72
2022/11/13 15:46:42;;;;;;;18.38;10.98;;;10.60;98.80;;;;;;5003380;28;20154;-72
2022/11/13 15:49:26;;;;;;;14.82;10.05;;;10.40;99.80;;;;;;5004094;28;20133;-72
2022/11/13 15:52:11;;;;;;;14.60;10.07;;;10.10;99.90;;;;;;5004777;28;20041;-74
2022/11/13 15:54:57;;;;;;;14.38;9.65;;;9.90;99.90;;;;;;5004693;28;20053;-73
2022/11/13 15:57:41;;;;;;;13.75;9.60;;;9.70;99.90;;;;;;5003945;28;20045;-73
2022/11/13 16:00:27;;;;;;;13.63;10.18;;;9.60;99.90;;;;;;5001974;28;20260;-73
2022/11/13 16:03:12;;;;;;;16.88;10.95;;;9.40;99.90;;;;;;5004008;28;20344;-73
2022/11/13 16:05:58;;;;;;;17.08;10.77;;;9.30;99.90;;;;;;5004214;28;20033;-72
2022/11/13 16:08:43;;;;;;;13.93;9.95;;;9.20;99.90;;;;;;5004098;28;20068;-71
2022/11/13 16:11:30;;;;;;;17.15;10.25;;;9.20;99.90;;;;;;5003607;28;20072;-71
2022/11/13 16:14:15;;;;;;;13.70;10.07;;;9.00;99.90;;;;;;5004248;28;20073;-74
2022/11/13 16:17:11;;;;;;;14.90;10.63;;;9.00;99.90;;;;;;5002354;28;20041;-72
2022/11/13 16:19:55;;;;;;;18.77;11.23;;;8.80;99.90;;;;;;4989459;28;20065;-73
2022/11/13 16:22:39;;;;;;;17.25;11.55;;;8.70;99.90;;;;;;4988882;28;20227;-71
2022/11/13 16:25:25;;;;;;;17.67;12.18;;;8.60;99.90;;;;;;4989149;28;20057;-72
2022/11/13 16:28:18;;;;;;;18.08;12.60;;;8.50;99.90;;;;;;5003952;28;20033;-72
2022/11/13 16:31:03;;;;;;;17.85;13.25;;;8.40;99.90;;;;;;5002166;28;20029;-73
2022/11/13 16:33:47;;;;;;;20.60;12.70;;;8.40;99.90;;;;;;4984788;28;20229;-74
2022/11/13 16:36:32;;;;;;;18.38;12.57;;;8.20;99.90;;;;;;4983974;28;20040;-74
2022/11/13 16:39:17;;;;;;;16.60;11.93;;;8.20;99.90;;;;;;4988780;28;20069;-74
2022/11/13 16:42:01;;;;;;;16.88;11.75;;;8.10;99.90;;;;;;5003873;28;20028;-73
2022/11/13 16:44:45;;;;;;;17.90;12.35;;;8.00;99.90;;;;;;5003799;28;20105;-74
2022/11/13 16:47:31;;;;;;;20.25;13.18;;;7.90;99.90;;;;;;5003326;28;20133;-72
2022/11/13 16:50:24;;;;;;;18.10;12.07;;;7.80;99.90;;;;;;5003610;28;20041;-73
2022/11/13 16:53:09;;;;;;;20.45;14.35;;;7.80;99.90;;;;;;5000663;28;20087;-73
2022/11/13 16:55:53;;;;;;;20.05;14.40;;;7.70;99.90;;;;;;4997933;28;20224;-75
2022/11/13 16:58:37;;;;;;;19.35;12.98;;;7.70;99.90;;;;;;5001959;28;20033;-72
2022/11/13 17:01:22;;;;;;;20.15;14.00;;;7.60;99.90;;;;;;5000901;28;20062;-73
2022/11/13 17:04:06;;;;;;;20.00;13.32;;;7.60;99.90;;;;;;5001695;28;20433;-75
2022/11/13 17:06:50;;;;;;;18.55;13.35;;;7.60;99.90;;;;;;5002282;28;20080;-75
2022/11/13 17:09:39;;;;;;;20.00;14.45;;;7.60;99.90;;;;;;5001747;28;20240;-73
2022/11/13 17:12:23;;;;;;;21.08;14.57;;;7.50;99.90;;;;;;5001483;28;20230;-73
2022/11/13 17:15:08;;;;;;;20.95;13.15;;;7.50;99.90;;;;;;5001918;28;20029;-73
2022/11/13 17:17:56;;;;;;;20.63;13.88;;;7.40;99.90;;;;;;5002468;28;20346;-73
2022/11/13 17:20:40;;;;;;;;;;;7.30;99.90;;;;;;5003100;28;20145;-75
2022/11/13 17:23:24;;;;;;;21.10;15.30;;;7.20;99.90;;;;;;5001609;28;19913;-73
2022/11/13 17:26:08;;;;;;;21.77;14.48;;;7.10;99.90;;;;;;5001904;28;20430;-73
2022/11/13 17:28:54;;;;;;;21.83;14.38;;;7.00;99.90;;;;;;4982687;28;20041;-75
2022/11/13 17:31:38;;;;;;;19.38;14.15;;;6.90;99.90;;;;;;4983939;28;20037;-73
2022/11/13 17:34:24;;;;;;;20.95;14.70;;;6.90;99.90;;;;;;5002585;28;20074;-74
2022/11/13 17:37:08;;;;;;;20.80;15.35;;;6.80;99.90;;;;;;4988743;28;20046;-72
2022/11/13 17:39:53;;;;;;;20.08;14.20;;;6.80;99.90;;;;;;5002892;28;20239;-75
2022/11/13 17:42:40;;;;;;;21.00;13.95;;;6.70;99.90;;;;;;5002672;28;20224;-74
2022/11/13 17:45:24;;;;;;;21.80;14.57;;;6.70;99.90;;;;;;4988253;28;20122;-73
2022/11/13 17:48:09;;;;;;;23.17;14.77;;;6.60;99.90;;;;;;4988189;28;20042;-73
2022/11/13 17:50:58;;;;;;;19.70;13.55;;;6.50;99.90;;;;;;5003218;28;20285;-73
2022/11/13 17:53:42;;;;;;;19.00;13.60;;;6.40;99.90;;;;;;5001371;28;20060;-73
2022/11/13 17:56:37;;;;;;;23.40;14.75;;;6.40;99.90;;;;;;5001603;28;20041;-73
2022/11/13 17:59:21;;;;;;;24.35;15.18;;;6.40;99.90;;;;;;4983109;28;20030;-72
2022/11/13 18:02:09;;;;;;;23.80;14.38;;;6.30;99.90;;;;;;4979721;28;20066;-74
2022/11/13 18:04:57;;;;;;;22.98;15.25;;;6.30;99.90;;;;;;4980368;28;20041;-75
2022/11/13 18:07:41;;;;;;;23.30;15.03;;;6.20;99.90;;;;;;4979439;28;20657;-74
2022/11/13 18:10:25;;;;;;;21.42;14.73;;;6.20;99.90;;;;;;4979663;28;20446;-74
2022/11/13 18:13:10;;;;;;;25.15;16.02;;;6.20;99.90;;;;;;4980171;28;20114;-74
2022/11/13 18:15:54;;;;;;;22.10;14.85;;;6.20;99.90;;;;;;4978869;28;20070;-70
2022/11/13 18:18:40;;;;;;;25.38;14.65;;;6.10;99.90;;;;;;4969189;28;20097;-73
2022/11/13 18:21:27;;;;;;;24.25;16.33;;;6.10;99.90;;;;;;4970977;28;20041;-74
2022/11/13 18:24:16;;;;;;;25.52;15.55;;;6.00;99.90;;;;;;4965771;28;20082;-73
2022/11/13 18:27:02;;;;;;;24.95;16.17;;;6.00;99.90;;;;;;4965387;28;20030;-73
2022/11/13 18:29:46;;;;;;;23.55;15.93;;;6.00;99.90;;;;;;4991322;28;20041;-72
2022/11/13 18:32:30;;;;;;;25.95;17.05;;;5.90;99.90;;;;;;4984309;28;20042;-74
2022/11/13 18:35:22;;;;;;;25.67;16.75;;;5.90;99.90;;;;;;4985332;28;20037;-74
2022/11/13 18:38:06;;;;;;;27.35;16.73;;;5.90;99.90;;;;;;4987844;28;20046;-74
2022/11/13 18:40:58;;;;;;;28.42;18.10;;;5.80;99.90;;;;;;5004517;28;20068;-73
2022/11/13 18:43:44;;;;;;;28.85;18.70;;;5.70;99.90;;;;;;5004597;28;20069;-71
2022/11/13 18:46:29;;;;;;;25.15;17.33;;;5.70;99.90;;;;;;4989233;28;20185;-73
2022/11/13 18:49:13;;;;;;;27.67;19.33;;;5.70;99.90;;;;;;5004459;28;20099;-72
2022/11/13 18:51:57;;;;;;;29.27;18.20;;;5.70;99.90;;;;;;5004389;28;20098;-73
2022/11/13 18:54:41;;;;;;;28.92;18.40;;;5.60;99.90;;;;;;5000220;28;20287;-74
2022/11/13 18:57:26;;;;;;;28.95;18.30;;;5.70;99.90;;;;;;5004580;28;20072;-74
2022/11/13 19:00:11;;;;;;;26.42;17.60;;;5.70;99.90;;;;;;4991822;28;20033;-73
2022/11/13 19:02:56;;;;;;;27.73;18.15;;;5.70;99.90;;;;;;5001087;28;20108;-72
2022/11/13 19:05:45;;;;;;;28.88;18.27;;;5.60;99.90;;;;;;5004071;28;20169;-71
2022/11/13 19:08:29;;;;;;;29.27;18.02;;;5.60;99.90;;;;;;5004006;28;20033;-72
2022/11/13 19:11:17;;;;;;;28.63;17.58;;;5.60;99.90;;;;;;4989341;28;20029;-74
2022/11/13 19:14:01;;;;;;;;;;;5.60;99.90;;;;;;5005140;28;20025;-71
2022/11/13 19:16:45;;;;;;;27.20;17.58;;;5.60;99.90;;;;;;4988909;28;19952;-74
2022/11/13 19:19:29;;;;;;;29.02;18.23;;;5.50;99.90;;;;;;5003601;28;20037;-73
2022/11/13 19:22:14;;;;;;;29.17;18.70;;;5.60;99.90;;;;;;5003827;28;20073;-71
2022/11/13 19:24:58;;;;;;;30.80;18.17;;;5.60;99.90;;;;;;5003772;28;20259;-73
2022/11/13 19:27:43;;;;;;;26.35;17.35;;;5.70;99.90;;;;;;5003526;28;20061;-72
2022/11/13 19:30:27;;;;;;;30.90;19.35;;;5.70;99.90;;;;;;5004114;28;20029;-70
2022/11/13 19:33:14;;;;;;;29.65;17.50;;;5.60;99.90;;;;;;5003559;28;20073;-72
2022/11/13 19:36:10;;;;;;;28.00;17.77;;;5.60;99.90;;;;;;5003791;28;20090;-74
2022/11/13 19:38:55;;;;;;;32.33;18.33;;;5.50;99.90;;;;;;5003774;28;20034;-72
2022/11/13 19:41:39;;;;;;;29.33;18.92;;;5.40;99.90;;;;;;4988235;28;20036;-73
2022/11/13 19:44:23;;;;;;;30.23;18.88;;;5.30;99.90;;;;;;5003777;28;20211;-73
2022/11/13 19:47:08;;;;;;;34.58;20.15;;;5.30;99.90;;;;;;5003415;28;20097;-73
2022/11/13 19:49:52;;;;;;;35.88;20.33;;;5.30;99.90;;;;;;5003607;28;20060;-73
2022/11/13 19:52:40;;;;;;;32.97;21.00;;;5.20;99.90;;;;;;5002810;28;20061;-73
2022/11/13 19:55:27;;;;;;;36.33;22.48;;;5.20;99.90;;;;;;5003202;28;20118;-71
2022/11/13 19:58:12;;;;;;;33.72;20.50;;;5.20;99.90;;;;;;5003455;28;20034;-73
2022/11/13 20:00:56;;;;;;;31.52;19.48;;;5.10;99.90;;;;;;5003276;28;20033;-72
2022/11/13 20:03:41;;;;;;;36.88;20.98;;;5.10;99.90;;;;;;5002915;28;20045;-73
2022/11/13 20:06:28;;;;;;;30.33;19.50;;;5.10;99.90;;;;;;5003430;28;20045;-74
2022/11/13 20:09:13;;;;;;;36.10;21.50;;;5.10;99.90;;;;;;5003188;28;20065;-72
2022/11/13 20:11:58;;;;;;;34.10;20.63;;;5.00;99.90;;;;;;4988653;28;20065;-74
2022/11/13 20:14:51;;;;;;;36.75;21.02;;;5.00;99.90;;;;;;5003092;28;20052;-73
2022/11/13 20:17:36;;;;;;;37.78;21.08;;;4.90;99.90;;;;;;4987801;28;20275;-73
2022/11/13 20:20:20;;;;;;;34.08;20.15;;;4.90;99.90;;;;;;5002123;28;20045;-74
2022/11/13 20:23:06;;;;;;;35.22;21.30;;;4.80;99.90;;;;;;5002975;28;20098;-73
2022/11/13 20:26:05;;;;;;;32.58;20.15;;;4.80;99.90;;;;;;5000743;28;20065;-72
2022/11/13 20:28:50;;;;;;;34.83;20.35;;;4.70;99.90;;;;;;5000410;28;20213;-74
2022/11/13 20:31:45;;;;;;;33.70;20.42;;;4.70;99.90;;;;;;5001258;28;20049;-71
2022/11/13 20:34:29;;;;;;;35.20;20.15;;;4.70;99.90;;;;;;4985821;28;20029;-72
2022/11/13 20:37:17;;;;;;;33.45;19.17;;;4.70;99.90;;;;;;4987739;28;20045;-72
2022/11/13 20:40:01;;;;;;;34.33;20.08;;;4.70;99.90;;;;;;5002502;28;20056;-73
2022/11/13 20:42:45;;;;;;;33.35;19.75;;;4.70;99.90;;;;;;5002070;28;20038;-73
2022/11/13 20:45:29;;;;;;;32.53;20.02;;;4.80;99.90;;;;;;4987311;28;20025;-73